createdAt,value
2022-10-14T00:02:02.247Z,6.86
2022-10-14T00:04:30.104Z,6.86
2022-10-14T00:06:56.893Z,6.81
2022-10-14T00:09:23.834Z,6.80
2022-10-14T00:11:50.697Z,6.80
2022-10-14T00:14:19.754Z,6.79
2022-10-14T00:16:48.922Z,6.77
2022-10-14T00:19:15.887Z,6.83
2022-10-14T00:21:44.697Z,6.82
2022-10-14T00:24:13.011Z,6.82
2022-10-14T00:26:40.881Z,6.80
2022-10-14T00:29:19.464Z,6.81
2022-10-14T00:31:46.938Z,6.88
2022-10-14T00:34:16.103Z,6.91
2022-10-14T00:36:43.670Z,6.90
2022-10-14T00:39:10.937Z,6.94
2022-10-14T00:41:38.180Z,6.98
2022-10-14T00:44:24.677Z,7.01
2022-10-14T00:46:52.008Z,7.10
2022-10-14T00:49:23.578Z,7.10
2022-10-14T00:51:58.622Z,7.01
2022-10-14T00:54:30.614Z,7.00
2022-10-14T00:56:57.257Z,6.96
2022-10-14T00:59:24.216Z,6.93
2022-10-14T01:01:50.973Z,6.89
2022-10-14T01:04:17.536Z,6.90
2022-10-14T01:07:03.976Z,6.84
2022-10-14T01:09:41.043Z,6.81
2022-10-14T01:12:40.042Z,6.79
2022-10-14T01:15:12.054Z,6.76
2022-10-14T01:17:57.201Z,6.71
2022-10-14T01:20:36.765Z,6.73
2022-10-14T01:23:06.036Z,6.76
2022-10-14T01:25:41.393Z,6.78
2022-10-14T01:28:08.564Z,6.82
2022-10-14T01:30:42.040Z,6.83
2022-10-14T01:33:22.450Z,6.79
2022-10-14T01:36:16.831Z,6.79
2022-10-14T01:39:07.892Z,6.73
2022-10-14T01:41:41.667Z,6.70
2022-10-14T01:44:11.656Z,6.61
2022-10-14T01:46:40.931Z,6.58
2022-10-14T01:49:15.785Z,6.55
2022-10-14T01:51:53.310Z,6.52
2022-10-14T01:54:25.126Z,6.49
2022-10-14T01:56:55.746Z,6.49
2022-10-14T01:59:23.615Z,6.50
2022-10-14T02:01:50.235Z,6.46
2022-10-14T02:04:19.375Z,6.47
2022-10-14T02:06:52.569Z,6.46
2022-10-14T02:09:31.569Z,6.50
2022-10-14T02:12:16.932Z,6.52
2022-10-14T02:15:01.759Z,6.50
2022-10-14T02:17:42.536Z,6.50
2022-10-14T02:20:22.966Z,6.45
2022-10-14T02:22:58.112Z,6.45
2022-10-14T02:25:32.603Z,6.48
2022-10-14T02:28:02.493Z,6.48
2022-10-14T02:30:32.844Z,6.48
2022-10-14T02:33:01.419Z,6.47
2022-10-14T02:35:30.728Z,6.46
2022-10-14T02:37:59.006Z,6.44
2022-10-14T02:40:35.502Z,6.41
2022-10-14T02:43:02.141Z,6.43
2022-10-14T02:45:29.815Z,6.46
2022-10-14T02:47:56.401Z,6.41
2022-10-14T02:50:23.393Z,6.39
2022-10-14T02:52:49.941Z,6.40
2022-10-14T02:55:16.580Z,6.41
2022-10-14T02:57:43.192Z,6.41
2022-10-14T03:00:10.730Z,6.41
2022-10-14T03:02:37.301Z,6.39
2022-10-14T03:05:04.416Z,6.39
2022-10-14T03:07:31.111Z,6.35
2022-10-14T03:09:58.463Z,6.32
2022-10-14T03:12:25.691Z,6.29
2022-10-14T03:14:52.352Z,6.25
2022-10-14T03:17:18.953Z,6.21
2022-10-14T03:19:45.659Z,6.16
2022-10-14T03:22:12.662Z,6.15
2022-10-14T03:24:39.248Z,6.15
2022-10-14T03:27:05.827Z,6.14
2022-10-14T03:29:32.389Z,6.15
2022-10-14T03:31:58.958Z,6.17
2022-10-14T03:34:25.565Z,6.15
2022-10-14T03:36:52.101Z,6.13
2022-10-14T03:39:18.769Z,6.13
2022-10-14T03:41:45.374Z,6.17
2022-10-14T03:44:12.023Z,6.19
2022-10-14T03:46:38.796Z,6.11
2022-10-14T03:49:05.432Z,6.08
2022-10-14T03:51:32.002Z,6.01
2022-10-14T03:53:58.586Z,6.03
2022-10-14T03:56:25.144Z,6.04
2022-10-14T03:58:51.918Z,6.03
2022-10-14T04:01:18.500Z,6.07
2022-10-14T04:03:46.771Z,6.11
2022-10-14T04:06:14.722Z,6.04
2022-10-14T04:08:41.493Z,5.99
2022-10-14T04:11:08.444Z,5.98
2022-10-14T04:13:36.733Z,6.00
2022-10-14T04:16:08.111Z,5.99
2022-10-14T04:18:36.275Z,6.03
2022-10-14T04:21:05.157Z,5.99
2022-10-14T04:23:34.545Z,5.97
2022-10-14T04:26:05.866Z,5.96
2022-10-14T04:28:33.506Z,5.95
2022-10-14T04:31:00.666Z,5.99
2022-10-14T04:33:27.852Z,6.00
2022-10-14T04:36:02.549Z,6.03
2022-10-14T04:38:29.577Z,6.05
2022-10-14T04:40:56.745Z,6.07
2022-10-14T04:43:23.443Z,6.08
2022-10-14T04:45:50.661Z,6.08
2022-10-14T04:48:18.394Z,6.09
2022-10-14T04:50:44.994Z,6.08
2022-10-14T04:53:13.708Z,6.09
2022-10-14T04:55:40.794Z,6.08
2022-10-14T04:58:07.457Z,6.12
2022-10-14T05:00:34.117Z,6.10
2022-10-14T05:03:00.730Z,6.12
2022-10-14T05:05:27.372Z,6.14
2022-10-14T05:07:54.022Z,6.12
2022-10-14T05:10:20.826Z,6.14
2022-10-14T05:12:47.448Z,6.07
2022-10-14T05:15:14.386Z,6.09
2022-10-14T05:17:44.589Z,6.09
2022-10-14T05:20:12.288Z,6.11
2022-10-14T05:22:39.310Z,6.12
2022-10-14T05:25:06.466Z,6.15
2022-10-14T05:27:33.475Z,6.14
2022-10-14T05:30:00.047Z,6.14
2022-10-14T05:32:26.631Z,6.20
2022-10-14T05:34:53.278Z,6.22
2022-10-14T05:37:21.415Z,6.24
2022-10-14T05:39:48.008Z,6.31
2022-10-14T05:42:14.607Z,6.32
2022-10-14T05:44:41.213Z,6.33
2022-10-14T05:47:07.785Z,6.34
2022-10-14T05:49:34.361Z,6.39
2022-10-14T05:52:01.838Z,6.43
2022-10-14T05:54:28.545Z,6.47
2022-10-14T05:56:55.162Z,6.56
2022-10-14T05:59:22.457Z,6.60
2022-10-14T06:01:49.032Z,6.57
2022-10-14T06:04:20.489Z,6.64
2022-10-14T06:06:47.249Z,6.67
2022-10-14T06:09:14.768Z,6.68
2022-10-14T06:11:41.360Z,6.77
2022-10-14T06:14:08.405Z,6.83
2022-10-14T06:16:35.059Z,6.88
2022-10-14T06:19:01.655Z,6.91
2022-10-14T06:21:28.556Z,7.02
2022-10-14T06:23:55.233Z,7.03
2022-10-14T06:26:23.200Z,7.10
2022-10-14T06:28:49.799Z,7.17
2022-10-14T06:31:16.592Z,7.21
2022-10-14T06:33:44.214Z,7.28
2022-10-14T06:36:11.994Z,7.35
2022-10-14T06:38:38.719Z,7.43
2022-10-14T06:41:05.404Z,7.50
2022-10-14T06:43:32.138Z,7.47
2022-10-14T06:45:58.935Z,7.52
2022-10-14T06:48:25.745Z,7.57
2022-10-14T06:50:52.698Z,7.58
2022-10-14T06:53:19.373Z,7.61
2022-10-14T06:55:46.500Z,7.74
2022-10-14T06:58:13.293Z,7.84
2022-10-14T07:00:42.214Z,7.99
2022-10-14T07:03:12.282Z,8.07
2022-10-14T07:05:38.865Z,8.06
2022-10-14T07:08:05.744Z,8.13
2022-10-14T07:10:32.738Z,8.35
2022-10-14T07:12:59.302Z,8.64
2022-10-14T07:15:25.882Z,9.59
2022-10-14T07:17:52.488Z,10.82
2022-10-14T07:20:19.150Z,11.83
2022-10-14T07:22:45.804Z,12.43
2022-10-14T07:25:12.841Z,12.18
2022-10-14T07:27:39.453Z,12.19
2022-10-14T07:30:06.643Z,13.35
2022-10-14T07:32:37.091Z,14.57
2022-10-14T07:35:04.164Z,15.66
2022-10-14T07:37:30.871Z,15.14
2022-10-14T07:39:57.499Z,16.82
2022-10-14T07:42:24.056Z,17.46
2022-10-14T07:44:50.789Z,17.33
2022-10-14T07:47:17.358Z,17.70
2022-10-14T07:49:43.930Z,19.10
2022-10-14T07:52:10.619Z,19.79
2022-10-14T07:54:37.257Z,20.47
2022-10-14T07:57:04.278Z,20.98
2022-10-14T07:59:30.925Z,21.26
2022-10-14T08:01:57.654Z,21.99
2022-10-14T08:04:25.322Z,21.30
2022-10-14T08:06:52.284Z,21.12
2022-10-14T08:09:22.185Z,20.37
2022-10-14T08:11:49.013Z,18.66
2022-10-14T08:14:16.656Z,18.58
2022-10-14T08:16:43.222Z,19.29
2022-10-14T08:19:14.416Z,20.78
2022-10-14T08:21:42.897Z,21.41
2022-10-14T08:24:10.185Z,20.50
2022-10-14T08:26:48.995Z,20.53
2022-10-14T08:29:15.762Z,21.81
2022-10-14T08:31:42.356Z,22.40
2022-10-14T08:34:09.005Z,22.92
2022-10-14T08:36:35.665Z,22.82
2022-10-14T08:39:02.363Z,22.94
2022-10-14T08:42:06.388Z,22.12
2022-10-14T08:44:41.489Z,21.29
2022-10-14T08:47:14.268Z,20.48
2022-10-14T08:49:59.562Z,20.41
2022-10-14T08:52:37.552Z,20.59
2022-10-14T08:55:19.543Z,19.99
2022-10-14T08:58:02.525Z,19.92
2022-10-14T09:00:32.880Z,20.00
2022-10-14T09:03:02.392Z,19.88
2022-10-14T09:05:29.135Z,20.22
2022-10-14T09:07:56.960Z,20.18
2022-10-14T09:10:32.273Z,20.43
2022-10-14T09:13:10.118Z,20.04
2022-10-14T09:15:43.084Z,19.24
2022-10-14T09:18:28.997Z,19.54
2022-10-14T09:20:57.914Z,19.23
2022-10-14T09:23:27.386Z,19.95
2022-10-14T09:26:00.790Z,21.51
2022-10-14T09:28:39.207Z,20.64
2022-10-14T09:31:08.055Z,21.24
2022-10-14T09:33:42.263Z,21.94
2022-10-14T09:36:21.237Z,21.97
2022-10-14T09:38:53.314Z,22.30
2022-10-14T09:41:28.678Z,22.77
2022-10-14T09:44:21.406Z,22.19
2022-10-14T09:46:59.663Z,22.07
2022-10-14T09:49:41.219Z,22.78
2022-10-14T09:52:20.191Z,22.98
2022-10-14T09:54:55.298Z,22.18
2022-10-14T09:57:23.027Z,23.29
2022-10-14T09:59:55.237Z,23.11
2022-10-14T10:02:25.897Z,23.50
2022-10-14T10:04:54.938Z,23.98
2022-10-14T10:07:33.981Z,23.33
2022-10-14T10:10:05.615Z,23.99
2022-10-14T10:12:35.919Z,23.69
2022-10-14T10:15:06.105Z,22.58
2022-10-14T10:17:36.142Z,23.16
2022-10-14T10:20:14.975Z,22.56
2022-10-14T10:22:41.948Z,22.48
2022-10-14T10:25:08.425Z,22.74
2022-10-14T10:27:38.686Z,22.53
2022-10-14T10:30:17.527Z,21.34
2022-10-14T10:32:54.973Z,21.40
2022-10-14T10:35:33.318Z,21.47
2022-10-14T10:38:20.798Z,22.25
2022-10-14T10:41:18.669Z,22.87
2022-10-14T10:43:54.241Z,22.67
2022-10-14T10:46:45.848Z,22.55
2022-10-14T10:49:20.495Z,23.17
2022-10-14T10:51:56.809Z,22.85
2022-10-14T10:54:38.645Z,22.70
2022-10-14T10:57:30.433Z,23.13
2022-10-14T11:00:03.777Z,22.49
2022-10-14T11:03:20.970Z,22.78
2022-10-14T11:05:54.361Z,23.48
2022-10-14T11:08:57.024Z,23.33
2022-10-14T11:11:49.593Z,22.99
2022-10-14T11:14:23.481Z,22.32
2022-10-14T11:17:05.516Z,21.87
2022-10-14T11:19:50.147Z,21.74
2022-10-14T11:22:30.938Z,21.39
2022-10-14T11:25:26.198Z,21.47
2022-10-14T11:28:10.288Z,21.60
2022-10-14T11:30:47.672Z,21.61
2022-10-14T11:33:53.175Z,21.59
2022-10-14T11:36:44.788Z,21.42
2022-10-14T11:39:46.944Z,21.01
2022-10-14T11:42:48.326Z,21.40
2022-10-14T11:45:36.148Z,22.02
2022-10-14T11:48:25.894Z,21.39
2022-10-14T11:51:02.775Z,20.74
2022-10-14T11:53:45.388Z,20.82
2022-10-14T11:56:40.915Z,20.50
2022-10-14T11:59:40.184Z,19.94
2022-10-14T12:02:36.018Z,19.56
2022-10-14T12:05:08.562Z,19.12
2022-10-14T12:07:41.967Z,18.90
2022-10-14T12:10:38.461Z,18.65
2022-10-14T12:13:13.758Z,18.45
2022-10-14T12:15:45.224Z,18.30
2022-10-14T12:18:12.419Z,18.36
2022-10-14T12:20:49.806Z,18.45
2022-10-14T12:23:41.362Z,18.77
2022-10-14T12:26:27.857Z,18.80
2022-10-14T12:28:55.443Z,18.79
2022-10-14T12:31:34.170Z,18.69
2022-10-14T12:34:15.957Z,18.73
2022-10-14T12:36:45.144Z,18.80
2022-10-14T12:39:17.842Z,19.03
2022-10-14T12:42:14.954Z,18.98
2022-10-14T12:44:49.316Z,18.87
2022-10-14T12:47:22.905Z,18.77
2022-10-14T12:49:53.378Z,18.86
2022-10-14T12:52:25.004Z,18.85
2022-10-14T12:57:38.842Z,18.54
2022-10-14T13:00:15.100Z,18.53
2022-10-14T13:02:46.299Z,18.53
2022-10-14T13:05:24.871Z,18.53
2022-10-14T13:08:20.709Z,18.47
2022-10-14T13:11:13.468Z,18.77
2022-10-14T13:13:47.932Z,18.69
2022-10-14T13:16:23.562Z,18.76
2022-10-14T13:18:55.011Z,18.88
2022-10-14T13:21:36.768Z,18.70
2022-10-14T13:24:20.911Z,18.72
2022-10-14T13:26:47.572Z,18.73
2022-10-14T13:29:21.516Z,18.79
2022-10-14T13:32:27.261Z,18.73
2022-10-14T13:35:00.884Z,18.72
2022-10-14T13:37:33.163Z,18.82
2022-10-14T13:40:27.355Z,18.62
2022-10-14T13:42:57.793Z,18.46
2022-10-14T13:45:41.320Z,18.17
2022-10-14T13:48:30.903Z,17.95
2022-10-14T13:51:17.507Z,17.83
2022-10-14T13:54:09.422Z,17.70
2022-10-14T13:56:36.309Z,17.51
2022-10-14T13:59:07.979Z,17.35
2022-10-14T14:01:43.729Z,17.19
2022-10-14T14:04:22.705Z,17.12
2022-10-14T14:07:03.377Z,17.15
2022-10-14T14:09:38.377Z,17.14
2022-10-14T14:12:05.576Z,17.19
2022-10-14T14:14:41.709Z,17.17
2022-10-14T14:17:17.020Z,17.16
2022-10-14T14:19:48.553Z,17.17
2022-10-14T14:22:31.695Z,17.25
2022-10-14T14:25:33.418Z,17.31
2022-10-14T14:28:02.806Z,17.21
2022-10-14T14:30:33.798Z,17.19
2022-10-14T14:33:08.206Z,17.10
2022-10-14T14:35:34.812Z,16.94
2022-10-14T14:38:01.750Z,16.93
2022-10-14T14:40:30.928Z,16.84
2022-10-14T14:43:03.153Z,16.73
2022-10-14T14:45:41.415Z,16.65
2022-10-14T14:48:11.791Z,16.65
2022-10-14T14:50:43.046Z,16.74
2022-10-14T14:53:24.184Z,16.73
2022-10-14T14:55:54.052Z,16.67
2022-10-14T14:58:20.786Z,16.63
2022-10-14T15:00:50.077Z,16.59
2022-10-14T15:03:16.793Z,16.50
2022-10-14T15:05:51.429Z,16.38
2022-10-14T15:08:24.652Z,16.27
2022-10-14T15:10:53.258Z,16.18
2022-10-14T15:13:38.105Z,16.09
2022-10-14T15:16:05.930Z,16.03
2022-10-14T15:18:32.971Z,15.95
2022-10-14T15:21:07.326Z,15.89
2022-10-14T15:23:56.151Z,15.84
2022-10-14T15:26:28.482Z,15.79
2022-10-14T15:29:10.397Z,15.71
2022-10-14T15:31:38.999Z,15.69
2022-10-14T15:34:11.329Z,15.63
2022-10-14T15:36:37.944Z,15.58
2022-10-14T15:39:04.604Z,15.51
2022-10-14T15:41:31.211Z,15.43
2022-10-14T15:43:57.795Z,15.35
2022-10-14T15:46:43.212Z,15.28
2022-10-14T15:49:20.470Z,15.15
2022-10-14T15:51:47.033Z,15.06
2022-10-14T15:54:16.410Z,14.96
2022-10-14T15:56:43.021Z,14.84
2022-10-14T15:59:10.159Z,14.75
2022-10-14T16:01:38.347Z,14.64
2022-10-14T16:04:06.537Z,14.57
2022-10-14T16:06:33.143Z,14.45
2022-10-14T16:08:59.757Z,14.33
2022-10-14T16:11:28.554Z,14.19
2022-10-14T16:13:55.195Z,14.07
2022-10-14T16:16:44.352Z,13.93
2022-10-14T16:19:12.050Z,13.79
2022-10-14T16:21:40.412Z,13.71
2022-10-14T16:24:07.897Z,13.61
2022-10-14T16:26:34.569Z,13.52
2022-10-14T16:29:03.395Z,13.43
2022-10-14T16:31:30.147Z,13.35
2022-10-14T16:33:56.705Z,13.27
2022-10-14T16:36:24.947Z,13.18
2022-10-14T16:38:52.085Z,13.08
2022-10-14T16:41:18.697Z,12.99
2022-10-14T16:43:45.462Z,12.91
2022-10-14T16:46:15.411Z,12.88
2022-10-14T16:48:42.526Z,12.81
2022-10-14T16:51:09.266Z,12.77
2022-10-14T16:53:42.177Z,12.75
2022-10-14T16:56:36.067Z,12.63
2022-10-14T16:59:03.852Z,12.58
2022-10-14T17:01:30.987Z,12.50
2022-10-14T17:03:58.018Z,12.42
2022-10-14T17:06:26.060Z,12.32
2022-10-14T17:08:53.299Z,12.31
2022-10-14T17:11:20.460Z,12.29
2022-10-14T17:13:49.538Z,12.26
2022-10-14T17:16:16.080Z,12.25
2022-10-14T17:18:42.775Z,12.22
2022-10-14T17:21:12.185Z,12.23
2022-10-14T17:23:42.197Z,12.23
2022-10-14T17:26:12.111Z,12.24
2022-10-14T17:28:39.198Z,12.26
2022-10-14T17:31:10.492Z,12.30
2022-10-14T17:33:38.361Z,12.37
2022-10-14T17:36:06.554Z,12.37
2022-10-14T17:38:34.845Z,12.38
2022-10-14T17:41:04.213Z,12.39
2022-10-14T17:43:30.930Z,12.39
2022-10-14T17:46:10.379Z,12.37
2022-10-14T17:48:38.018Z,12.34
2022-10-14T17:51:05.278Z,12.31
2022-10-14T17:53:31.855Z,12.24
2022-10-14T17:56:06.173Z,12.22
2022-10-14T17:58:33.876Z,12.20
2022-10-14T18:01:31.688Z,12.22
2022-10-14T18:04:04.311Z,12.18
2022-10-14T18:06:33.521Z,12.07
2022-10-14T18:09:02.783Z,11.97
2022-10-14T18:11:56.164Z,11.78
2022-10-14T18:14:19.371Z,11.78
2022-10-14T18:16:48.728Z,11.88
2022-10-14T18:19:17.214Z,11.95
2022-10-14T18:21:44.577Z,11.88
2022-10-14T18:24:12.302Z,11.82
2022-10-14T18:26:42.267Z,11.75
2022-10-14T18:29:09.293Z,11.69
2022-10-14T18:31:37.202Z,11.64
2022-10-14T18:34:03.873Z,11.61
2022-10-14T18:36:33.232Z,11.52
2022-10-14T18:39:02.455Z,11.51
2022-10-14T18:41:30.341Z,11.44
2022-10-14T18:44:00.355Z,11.41
2022-10-14T18:46:33.075Z,11.39
2022-10-14T18:49:01.340Z,11.37
2022-10-14T18:51:31.594Z,11.37
2022-10-14T18:54:00.533Z,11.35
2022-10-14T18:56:30.102Z,11.28
2022-10-14T18:58:59.419Z,11.20
2022-10-14T19:01:26.556Z,11.15
2022-10-14T19:03:54.245Z,11.09
2022-10-14T19:06:22.408Z,11.03
2022-10-14T19:08:50.087Z,10.96
2022-10-14T19:11:21.381Z,10.88
2022-10-14T19:13:50.227Z,10.86
2022-10-14T19:16:19.486Z,10.82
2022-10-14T19:18:47.996Z,10.75
2022-10-14T19:21:16.296Z,10.68
2022-10-14T19:23:43.907Z,10.62
2022-10-14T19:29:07.736Z,10.57
2022-10-14T19:31:37.940Z,10.52
2022-10-14T19:34:07.913Z,10.43
2022-10-14T19:36:36.998Z,10.34
2022-10-14T19:39:05.619Z,10.20
2022-10-14T19:41:38.495Z,10.12
2022-10-14T19:44:05.420Z,10.09
2022-10-14T19:46:32.034Z,9.98
2022-10-14T19:49:02.420Z,9.98
2022-10-14T19:51:29.470Z,9.95
2022-10-14T19:53:59.578Z,9.91
2022-10-14T19:56:28.545Z,9.85
2022-10-14T19:58:57.152Z,9.83
2022-10-14T20:01:26.773Z,9.79
2022-10-14T20:03:54.311Z,9.74
2022-10-14T20:06:21.984Z,9.69
2022-10-14T20:08:49.060Z,9.59
2022-10-14T20:11:18.687Z,9.46
2022-10-14T20:13:46.202Z,9.39
2022-10-14T20:16:13.700Z,9.42
2022-10-14T20:18:40.707Z,9.45
2022-10-14T20:21:08.431Z,9.46
2022-10-14T20:23:36.748Z,9.43
2022-10-14T20:26:06.310Z,9.46
2022-10-14T20:28:36.149Z,9.53
2022-10-14T20:31:05.739Z,9.59
2022-10-14T20:33:32.311Z,9.72
2022-10-14T20:36:04.067Z,9.81
2022-10-14T20:38:31.082Z,9.92
2022-10-14T20:41:17.963Z,9.99
2022-10-14T20:43:45.935Z,10.19
2022-10-14T20:46:13.222Z,10.33
2022-10-14T20:48:40.065Z,10.48
2022-10-14T20:51:08.534Z,10.59
2022-10-14T20:53:35.312Z,10.60
2022-10-14T20:56:06.785Z,10.57
2022-10-14T20:58:34.085Z,10.49
2022-10-14T21:01:15.284Z,10.51
2022-10-14T21:03:44.211Z,10.53
2022-10-14T21:06:22.212Z,10.47
2022-10-14T21:08:50.253Z,10.40
2022-10-14T21:11:19.397Z,10.35
2022-10-14T21:13:49.715Z,10.23
2022-10-14T21:16:34.607Z,10.21
2022-10-14T21:19:07.045Z,10.23
2022-10-14T21:21:39.770Z,10.25
2022-10-14T21:24:07.811Z,10.27
2022-10-14T21:26:34.913Z,10.32
2022-10-14T21:29:02.733Z,10.38
2022-10-14T21:31:30.259Z,10.50
2022-10-14T21:34:05.066Z,10.59
2022-10-14T21:36:34.750Z,10.55
2022-10-14T21:39:05.711Z,10.64
2022-10-14T21:41:32.683Z,10.60
2022-10-14T21:43:59.600Z,10.51
2022-10-14T21:46:27.159Z,10.60
2022-10-14T21:48:57.159Z,10.63
2022-10-14T21:51:25.663Z,10.55
2022-10-14T21:53:52.451Z,10.62
2022-10-14T21:56:22.746Z,10.63
2022-10-14T21:58:49.561Z,10.72
2022-10-14T22:01:21.726Z,10.76
2022-10-14T22:03:54.124Z,10.82
2022-10-14T22:06:22.392Z,10.81
2022-10-14T22:08:52.316Z,10.68
2022-10-14T22:11:34.129Z,10.38
2022-10-14T22:14:03.364Z,10.25
2022-10-14T22:16:32.868Z,10.15
2022-10-14T22:19:01.943Z,10.06
2022-10-14T22:21:32.413Z,9.86
2022-10-14T22:23:59.322Z,9.67
2022-10-14T22:26:27.284Z,9.46
2022-10-14T22:29:01.667Z,9.33
2022-10-14T22:31:29.487Z,9.27
2022-10-14T22:33:56.210Z,9.17
2022-10-14T22:36:25.706Z,9.07
2022-10-14T22:38:53.970Z,9.00
2022-10-14T22:41:23.401Z,8.99
2022-10-14T22:43:53.456Z,8.92
2022-10-14T22:46:22.293Z,8.77
2022-10-14T22:48:49.964Z,8.73
2022-10-14T22:51:18.619Z,8.86
2022-10-14T22:53:46.739Z,9.05
2022-10-14T22:56:16.592Z,9.02
2022-10-14T22:58:43.250Z,8.92
2022-10-14T23:01:12.533Z,8.82
2022-10-14T23:03:40.009Z,8.83
2022-10-14T23:06:08.749Z,8.78
2022-10-14T23:08:36.084Z,8.73
2022-10-14T23:11:04.238Z,8.67
2022-10-14T23:13:31.102Z,8.58
2022-10-14T23:16:02.689Z,8.51
2022-10-14T23:18:31.688Z,8.38
2022-10-14T23:20:58.634Z,8.34
2022-10-14T23:23:25.267Z,8.35
2022-10-14T23:25:51.850Z,8.32
2022-10-14T23:28:18.503Z,8.22
2022-10-14T23:30:45.083Z,8.27
2022-10-14T23:33:12.676Z,8.23
2022-10-14T23:35:39.299Z,8.17
2022-10-14T23:38:05.983Z,8.17
2022-10-14T23:40:33.209Z,8.14
2022-10-14T23:43:00.986Z,8.12
2022-10-14T23:45:27.597Z,8.14
2022-10-14T23:47:54.197Z,8.15
2022-10-14T23:50:20.896Z,8.09
2022-10-14T23:52:47.499Z,8.07
2022-10-14T23:55:15.817Z,8.11
